Norilsk-Alykel Airport
UOOO : now visible

Airfield :











YOU CAN JOIN US ON...

 
LOGIN :

Register | Disclaimer

   EN    FR    IT 

 









Legend :    VFR   Marginal VFR   IFR   Intensive IFR   Very Intensive IFR
Visi :
Ceiling :
>= 8 km
>= 3000ft
5 to 8 km
1000 to 3000 ft
1500m to 5 km
500 to 1000 ft
800 to 1500m
200 to 500 ft
< 800m
< 200 ft
Symbols :   Thunderstorms  Fog  Heavy snow  Heavy precipitations  Wind > 20 kt






- Airport Elevation : 574 ft
- IATA code : NSK


UOOO - Norilsk-Alykel

CURRENT METAR :
  • 192100Z 03008MPS 9999 FEW007 05/05 Q1005 R01/CLRD60 NOSIG RMK QFE739/0986

EXPIRED METARs :
  • 192000Z 01008MPS 9999 FEW007 06/05 Q1005 R01/CLRD60 NOSIG RMK QFE739/0986
  • 191900Z 02008MPS CAVOK 06/04 Q1006 R01/CLRD60 NOSIG RMK QFE740/0987
  • 191830Z 02008MPS CAVOK 06/04 Q1006 R01/CLRD60 NOSIG RMK QFE740/0987
  • 191800Z 03008MPS CAVOK 07/04 Q1006 R01/CLRD60 NOSIG RMK QFE740/0987
  • 191730Z 02009MPS CAVOK 07/04 Q1006 R01/CLRD60 NOSIG RMK QFE740/0987
  • 191700Z 02010MPS CAVOK 07/04 Q1006 R01/CLRD60 NOSIG RMK QFE740/0987
  • 191630Z 02011MPS CAVOK 08/04 Q1007 R01/CLRD60 NOSIG RMK QFE740/0987

TAF TAF UOOO
Valid from the 19 at 21:00 until the 20 at 21:00 UTC


191948Z 1921/2021 01008G16MPS 6000 SCT016
BECMG 2000/2004 03013G25MPS
TEMPO 2004/2012 36008G16MPS
BECMG 2012/2016 36008G18MPS
UOOO FIR / Asia



MET'MAP, your aeronautical weather chart ! - Copyright ORBIFLY December 2007 - Disclaimer

ORBIFLY MET'MAP TEAM :

Programming & Development : Alexandra Zaïnal
Original concept : Baudouin d'Aumeries
Technical & hardware support : Manuel Goepfert
Assistance : Marc-Olivier Méhu




SOURCES & CREDITS :

   NOAA       Earth
Advisory